<?xml version='1.0' encoding='UTF-8'?><gpx version="1.1" creator="JPX - https://github.com/jenetics/jpx" xmlns="http://www.topografix.com/GPX/1/1"><trk><trkseg><trkpt lat="53.76466501604682" lon="11.097762960171933"><ele>50.00000000000001</ele><time>2026-04-06T17:16:03.922Z</time></trkpt><trkpt lat="53.76461649078533" lon="11.097874906191521"><ele>50.0</ele><time>2026-04-06T17:17:10.922Z</time></trkpt><trkpt lat="53.76454311617954" lon="11.097856693096405"><ele>50.0</ele><time>2026-04-06T17:17:14.922Z</time></trkpt><trkpt lat="53.764486149109274" lon="11.097927548587375"><ele>50.0</ele><time>2026-04-06T17:17:44.922Z</time></trkpt><trkpt lat="53.76440657122952" lon="11.097895203105429"><ele>50.00000000000001</ele><time>2026-04-06T17:17:48.922Z</time></trkpt><trkpt lat="53.764341469262405" lon="11.097861730401508"><ele>50.0</ele><time>2026-04-06T17:17:51.922Z</time></trkpt><trkpt lat="53.76426712120192" lon="11.097892244564482"><ele>50.2</ele><time>2026-04-06T17:17:59.922Z</time></trkpt><trkpt lat="53.76419055752684" lon="11.097903121633573"><ele>50.4</ele><time>2026-04-06T17:18:02.922Z</time></trkpt><trkpt lat="53.76413009106578" lon="11.097866885190783"><ele>50.599999999999994</ele><time>2026-04-06T17:18:05.922Z</time></trkpt><trkpt lat="53.76407132402326" lon="11.097970837088871"><ele>50.8</ele><time>2026-04-06T17:18:08.922Z</time></trkpt><trkpt lat="53.76402547730731" lon="11.098153707686658"><ele>51.0</ele><time>2026-04-06T17:18:10.922Z</time></trkpt><trkpt lat="53.764011631390616" lon="11.098334353898958"><ele>51.166666666666664</ele><time>2026-04-06T17:18:12.922Z</time></trkpt><trkpt lat="53.763962885447775" lon="11.098439975268171"><ele>51.33333333333333</ele><time>2026-04-06T17:18:14.922Z</time></trkpt><trkpt lat="53.763893775160746" lon="11.098508867329624"><ele>51.5</ele><time>2026-04-06T17:18:16.922Z</time></trkpt><trkpt lat="53.76384531495881" lon="11.098715753614648"><ele>51.666666666666664</ele><time>2026-04-06T17:18:18.922Z</time></trkpt><trkpt lat="53.76382944547695" lon="11.09882980179904"><ele>51.83333333333333</ele><time>2026-04-06T17:18:19.922Z</time></trkpt><trkpt lat="53.76381709847841" lon="11.09894575386139"><ele>52.0</ele><time>2026-04-06T17:18:20.922Z</time></trkpt><trkpt lat="53.76380500843561" lon="11.099067193399875"><ele>51.75</ele><time>2026-04-06T17:18:21.922Z</time></trkpt><trkpt lat="53.76378238013607" lon="11.099230090884026"><ele>51.5</ele><time>2026-04-06T17:18:22.922Z</time></trkpt><trkpt lat="53.76375195024181" lon="11.099429479936123"><ele>51.25</ele><time>2026-04-06T17:18:23.922Z</time></trkpt><trkpt lat="53.7637068389694" lon="11.099646355091522"><ele>51.0</ele><time>2026-04-06T17:18:24.922Z</time></trkpt><trkpt lat="53.76365381596841" lon="11.0998844615563"><ele>51.33333333333333</ele><time>2026-04-06T17:18:25.922Z</time></trkpt><trkpt lat="53.76359662086956" lon="11.100122820365595"><ele>51.666666666666664</ele><time>2026-04-06T17:18:26.922Z</time></trkpt><trkpt lat="53.763531439061786" lon="11.10033908649305"><ele>52.0</ele><time>2026-04-06T17:18:27.922Z</time></trkpt><trkpt lat="53.76345147382852" lon="11.10057552058072"><ele>51.666666666666664</ele><time>2026-04-06T17:18:28.922Z</time></trkpt><trkpt lat="53.763366855391155" lon="11.100815379705226"><ele>51.33333333333333</ele><time>2026-04-06T17:18:29.922Z</time></trkpt><trkpt lat="53.76327113818107" lon="11.101064456904977"><ele>51.0</ele><time>2026-04-06T17:18:30.922Z</time></trkpt><trkpt lat="53.76316805923439" lon="11.101303669210782"><ele>51.0</ele><time>2026-04-06T17:18:31.922Z</time></trkpt><trkpt lat="53.763049634301446" lon="11.101546268403137"><ele>51.0</ele><time>2026-04-06T17:18:32.922Z</time></trkpt><trkpt lat="53.762916656123224" lon="11.101765301774345"><ele>51.0</ele><time>2026-04-06T17:18:33.922Z</time></trkpt><trkpt lat="53.76279785849208" lon="11.101978563772724"><ele>50.66666666666667</ele><time>2026-04-06T17:18:34.922Z</time></trkpt><trkpt lat="53.762707894133904" lon="11.102155126080547"><ele>50.333333333333336</ele><time>2026-04-06T17:18:35.922Z</time></trkpt><trkpt lat="53.76258963044496" lon="11.10237827851527"><ele>50.0</ele><time>2026-04-06T17:18:36.922Z</time></trkpt><trkpt lat="53.76246766994945" lon="11.102623274626204"><ele>50.333333333333336</ele><time>2026-04-06T17:18:37.923Z</time></trkpt><trkpt lat="53.762335579646304" lon="11.102843512033619"><ele>50.66666666666667</ele><time>2026-04-06T17:18:38.923Z</time></trkpt><trkpt lat="53.76221397138267" lon="11.103066834721162"><ele>51.0</ele><time>2026-04-06T17:18:39.923Z</time></trkpt><trkpt lat="53.762093267609224" lon="11.10330690583884"><ele>51.0</ele><time>2026-04-06T17:18:40.923Z</time></trkpt><trkpt lat="53.761989376754634" lon="11.103533805308887"><ele>51.0</ele><time>2026-04-06T17:18:41.923Z</time></trkpt><trkpt lat="53.761875185354235" lon="11.10378517599322"><ele>51.0</ele><time>2026-04-06T17:18:42.923Z</time></trkpt><trkpt lat="53.76175018316985" lon="11.104076790737315"><ele>51.0</ele><time>2026-04-06T17:18:43.923Z</time></trkpt><trkpt lat="53.76163213767036" lon="11.104366166205105"><ele>51.0</ele><time>2026-04-06T17:18:44.923Z</time></trkpt><trkpt lat="53.76152564832501" lon="11.104629123637675"><ele>51.0</ele><time>2026-04-06T17:18:45.923Z</time></trkpt><trkpt lat="53.76143810615669" lon="11.104855548273736"><ele>50.66666666666667</ele><time>2026-04-06T17:18:46.923Z</time></trkpt><trkpt lat="53.76134066782988" lon="11.105123516692117"><ele>50.333333333333336</ele><time>2026-04-06T17:18:47.923Z</time></trkpt><trkpt lat="53.761256447823314" lon="11.105390774790148"><ele>50.0</ele><time>2026-04-06T17:18:48.923Z</time></trkpt><trkpt lat="53.761195338328626" lon="11.10565169661168"><ele>49.66666666666667</ele><time>2026-04-06T17:18:49.923Z</time></trkpt><trkpt lat="53.7611262628038" lon="11.105934760752726"><ele>49.33333333333333</ele><time>2026-04-06T17:18:50.923Z</time></trkpt><trkpt lat="53.76105032810537" lon="11.106208431161354"><ele>49.0</ele><time>2026-04-06T17:18:51.923Z</time></trkpt><trkpt lat="53.76100190016946" lon="11.106505483138177"><ele>50.0</ele><time>2026-04-06T17:18:52.923Z</time></trkpt><trkpt lat="53.760998478575324" lon="11.106853334664361"><ele>51.0</ele><time>2026-04-06T17:18:53.923Z</time></trkpt><trkpt lat="53.76099232289868" lon="11.107183276804816"><ele>52.0</ele><time>2026-04-06T17:18:54.923Z</time></trkpt><trkpt lat="53.760948108079646" lon="11.107506103328836"><ele>52.0</ele><time>2026-04-06T17:18:55.923Z</time></trkpt><trkpt lat="53.76092054713933" lon="11.107825659040703"><ele>52.0</ele><time>2026-04-06T17:18:56.923Z</time></trkpt><trkpt lat="53.760925603541956" lon="11.108142623035008"><ele>52.0</ele><time>2026-04-06T17:18:57.923Z</time></trkpt><trkpt lat="53.76090600157063" lon="11.108430497276027"><ele>52.0</ele><time>2026-04-06T17:18:58.923Z</time></trkpt><trkpt lat="53.760901444332575" lon="11.10871589999926"><ele>52.0</ele><time>2026-04-06T17:18:59.923Z</time></trkpt><trkpt lat="53.76089767788589" lon="11.108963292496028"><ele>52.0</ele><time>2026-04-06T17:19:00.923Z</time></trkpt><trkpt lat="53.76089306312103" lon="11.109148693007363"><ele>52.0</ele><time>2026-04-06T17:19:01.923Z</time></trkpt><trkpt lat="53.76088271818734" lon="11.109338818813479"><ele>52.5</ele><time>2026-04-06T17:19:02.923Z</time></trkpt><trkpt lat="53.76087675272413" lon="11.109555748372053"><ele>53.0</ele><time>2026-04-06T17:19:03.923Z</time></trkpt><trkpt lat="53.760872194029744" lon="11.109751503362476"><ele>53.5</ele><time>2026-04-06T17:19:04.923Z</time></trkpt><trkpt lat="53.76086187603466" lon="11.10998765622035"><ele>54.0</ele><time>2026-04-06T17:19:05.923Z</time></trkpt><trkpt lat="53.760854015822254" lon="11.110267306163982"><ele>54.0</ele><time>2026-04-06T17:19:06.923Z</time></trkpt><trkpt lat="53.7608506587404" lon="11.110525513060097"><ele>54.0</ele><time>2026-04-06T17:19:07.923Z</time></trkpt><trkpt lat="53.76083661410425" lon="11.110769332142624"><ele>54.0</ele><time>2026-04-06T17:19:08.923Z</time></trkpt><trkpt lat="53.76082969794475" lon="11.110960819254409"><ele>54.0</ele><time>2026-04-06T17:19:09.923Z</time></trkpt><trkpt lat="53.760820539303495" lon="11.111167179412178"><ele>53.75</ele><time>2026-04-06T17:19:10.923Z</time></trkpt><trkpt lat="53.760811968422864" lon="11.111360296297219"><ele>53.5</ele><time>2026-04-06T17:19:11.923Z</time></trkpt><trkpt lat="53.760814322184395" lon="11.111581702121358"><ele>53.25</ele><time>2026-04-06T17:19:12.923Z</time></trkpt><trkpt lat="53.76080668414134" lon="11.111784341842831"><ele>53.0</ele><time>2026-04-06T17:19:13.923Z</time></trkpt><trkpt lat="53.76078949833706" lon="11.112008628257072"><ele>53.0</ele><time>2026-04-06T17:19:14.923Z</time></trkpt><trkpt lat="53.760756312004" lon="11.112240324464466"><ele>53.0</ele><time>2026-04-06T17:19:15.923Z</time></trkpt><trkpt lat="53.76074006389535" lon="11.112448363512504"><ele>53.0</ele><time>2026-04-06T17:19:16.923Z</time></trkpt><trkpt lat="53.760734657967745" lon="11.112684426628835"><ele>53.0</ele><time>2026-04-06T17:19:17.923Z</time></trkpt><trkpt lat="53.76066483490116" lon="11.112914283994801"><ele>53.0</ele><time>2026-04-06T17:19:18.923Z</time></trkpt><trkpt lat="53.760599068630945" lon="11.11311974646879"><ele>53.0</ele><time>2026-04-06T17:19:19.923Z</time></trkpt><trkpt lat="53.76051580059327" lon="11.113380559034741"><ele>53.0</ele><time>2026-04-06T17:19:20.923Z</time></trkpt><trkpt lat="53.76044142584843" lon="11.113621888395835"><ele>53.0</ele><time>2026-04-06T17:19:21.923Z</time></trkpt><trkpt lat="53.76036852058102" lon="11.113850716439"><ele>53.0</ele><time>2026-04-06T17:19:22.923Z</time></trkpt><trkpt lat="53.76028763355161" lon="11.114107848653605"><ele>53.0</ele><time>2026-04-06T17:19:23.923Z</time></trkpt><trkpt lat="53.76021465639801" lon="11.114350834557378"><ele>53.333333333333336</ele><time>2026-04-06T17:19:24.923Z</time></trkpt><trkpt lat="53.76014112116289" lon="11.114598569300053"><ele>53.66666666666667</ele><time>2026-04-06T17:19:25.923Z</time></trkpt><trkpt lat="53.760056775422925" lon="11.114888924115958"><ele>54.0</ele><time>2026-04-06T17:19:26.923Z</time></trkpt><trkpt lat="53.75998912040905" lon="11.115121000017774"><ele>54.33333333333333</ele><time>2026-04-06T17:19:27.923Z</time></trkpt><trkpt lat="53.75991373630247" lon="11.115385510735111"><ele>54.666666666666664</ele><time>2026-04-06T17:19:28.923Z</time></trkpt><trkpt lat="53.75983017151434" lon="11.115678726149556"><ele>55.0</ele><time>2026-04-06T17:19:29.923Z</time></trkpt><trkpt lat="53.759748280927006" lon="11.115966067061525"><ele>55.0</ele><time>2026-04-06T17:19:30.923Z</time></trkpt><trkpt lat="53.75966710292367" lon="11.116250907628983"><ele>55.0</ele><time>2026-04-06T17:19:31.923Z</time></trkpt><trkpt lat="53.75958425878791" lon="11.116546538936804"><ele>55.0</ele><time>2026-04-06T17:19:32.923Z</time></trkpt><trkpt lat="53.75950655618886" lon="11.116826558206116"><ele>54.666666666666664</ele><time>2026-04-06T17:19:33.923Z</time></trkpt><trkpt lat="53.759425333506975" lon="11.117119671512482"><ele>54.33333333333333</ele><time>2026-04-06T17:19:34.923Z</time></trkpt><trkpt lat="53.759342806722564" lon="11.117418253728118"><ele>54.0</ele><time>2026-04-06T17:19:35.923Z</time></trkpt><trkpt lat="53.75926208863018" lon="11.117710293193996"><ele>55.33333333333333</ele><time>2026-04-06T17:19:36.923Z</time></trkpt><trkpt lat="53.75918754938137" lon="11.117979975530217"><ele>56.666666666666664</ele><time>2026-04-06T17:19:37.923Z</time></trkpt><trkpt lat="53.759113429966796" lon="11.118243788711428"><ele>58.0</ele><time>2026-04-06T17:19:38.923Z</time></trkpt><trkpt lat="53.75902470887035" lon="11.118550255125488"><ele>58.0</ele><time>2026-04-06T17:19:39.923Z</time></trkpt><trkpt lat="53.75894111997677" lon="11.118844474594727"><ele>58.0</ele><time>2026-04-06T17:19:40.923Z</time></trkpt><trkpt lat="53.75886506436415" lon="11.119115827287745"><ele>58.0</ele><time>2026-04-06T17:19:41.923Z</time></trkpt><trkpt lat="53.75878453612041" lon="11.119403018875202"><ele>58.0</ele><time>2026-04-06T17:19:42.923Z</time></trkpt><trkpt lat="53.75871602833897" lon="11.119646931404752"><ele>58.0</ele><time>2026-04-06T17:19:43.923Z</time></trkpt><trkpt lat="53.758634262140525" lon="11.119930810736935"><ele>58.0</ele><time>2026-04-06T17:19:44.923Z</time></trkpt><trkpt lat="53.75854377129281" lon="11.120243370514554"><ele>58.33333333333333</ele><time>2026-04-06T17:19:45.923Z</time></trkpt><trkpt lat="53.75845894703086" lon="11.12054269747667"><ele>58.66666666666667</ele><time>2026-04-06T17:19:46.923Z</time></trkpt><trkpt lat="53.758382539879506" lon="11.120820764583877"><ele>59.0</ele><time>2026-04-06T17:19:47.923Z</time></trkpt><trkpt lat="53.75830657324601" lon="11.121100992948774"><ele>59.66666666666667</ele><time>2026-04-06T17:19:48.923Z</time></trkpt><trkpt lat="53.75823055524055" lon="11.121381411605293"><ele>60.33333333333333</ele><time>2026-04-06T17:19:49.923Z</time></trkpt><trkpt lat="53.75815021343198" lon="11.121679248688464"><ele>61.0</ele><time>2026-04-06T17:19:50.923Z</time></trkpt><trkpt lat="53.75808462399763" lon="11.121924762954526"><ele>61.33333333333333</ele><time>2026-04-06T17:19:51.923Z</time></trkpt><trkpt lat="53.75799978595943" lon="11.12224316897697"><ele>61.66666666666667</ele><time>2026-04-06T17:19:52.923Z</time></trkpt><trkpt lat="53.75792163212821" lon="11.122546442154276"><ele>62.0</ele><time>2026-04-06T17:19:53.923Z</time></trkpt><trkpt lat="53.757839636528544" lon="11.12286462228649"><ele>62.0</ele><time>2026-04-06T17:19:54.923Z</time></trkpt><trkpt lat="53.75776008520224" lon="11.12316878725295"><ele>62.0</ele><time>2026-04-06T17:19:55.923Z</time></trkpt><trkpt lat="53.757682606019934" lon="11.123457795312294"><ele>62.0</ele><time>2026-04-06T17:19:56.923Z</time></trkpt><trkpt lat="53.75760798208149" lon="11.123740075953137"><ele>62.0</ele><time>2026-04-06T17:19:57.923Z</time></trkpt><trkpt lat="53.75752844924453" lon="11.124046806022294"><ele>62.0</ele><time>2026-04-06T17:19:58.923Z</time></trkpt><trkpt lat="53.75744766807962" lon="11.124359201011579"><ele>62.0</ele><time>2026-04-06T17:19:59.923Z</time></trkpt><trkpt lat="53.75736906929541" lon="11.124663156280615"><ele>62.333333333333336</ele><time>2026-04-06T17:20:00.923Z</time></trkpt><trkpt lat="53.75729223375521" lon="11.12496029280377"><ele>62.66666666666667</ele><time>2026-04-06T17:20:01.923Z</time></trkpt><trkpt lat="53.75722451733868" lon="11.125222164053747"><ele>63.0</ele><time>2026-04-06T17:20:02.923Z</time></trkpt><trkpt lat="53.75716142170771" lon="11.125466166008712"><ele>63.0</ele><time>2026-04-06T17:20:03.923Z</time></trkpt><trkpt lat="53.75710746602604" lon="11.125669225523147"><ele>63.0</ele><time>2026-04-06T17:20:04.923Z</time></trkpt><trkpt lat="53.75705487101331" lon="11.125866434795782"><ele>63.0</ele><time>2026-04-06T17:20:05.923Z</time></trkpt><trkpt lat="53.75701579146094" lon="11.126015248127564"><ele>63.0</ele><time>2026-04-06T17:20:06.923Z</time></trkpt><trkpt lat="53.756975363106235" lon="11.126170401210791"><ele>63.0</ele><time>2026-04-06T17:20:08.923Z</time></trkpt><trkpt lat="53.75702982011393" lon="11.126350323872845"><ele>63.0</ele><time>2026-04-06T17:20:10.923Z</time></trkpt><trkpt lat="53.757104357608405" lon="11.126376417219742"><ele>63.0</ele><time>2026-04-06T17:20:15.923Z</time></trkpt><trkpt lat="53.75723850838559" lon="11.126411878794368"><ele>63.0</ele><time>2026-04-06T17:20:26.923Z</time></trkpt><trkpt lat="53.75731548547727" lon="11.126447601010598"><ele>63.0</ele><time>2026-04-06T17:20:27.923Z</time></trkpt><trkpt lat="53.75740901449989" lon="11.126467648120766"><ele>63.0</ele><time>2026-04-06T17:20:28.923Z</time></trkpt><trkpt lat="53.75752464638639" lon="11.126499450850261"><ele>63.0</ele><time>2026-04-06T17:20:29.923Z</time></trkpt><trkpt lat="53.75763805807318" lon="11.126519049793464"><ele>63.0</ele><time>2026-04-06T17:20:30.923Z</time></trkpt><trkpt lat="53.757755515479985" lon="11.12656674689899"><ele>63.0</ele><time>2026-04-06T17:20:31.923Z</time></trkpt><trkpt lat="53.75787410095695" lon="11.126601713999431"><ele>63.75</ele><time>2026-04-06T17:20:32.923Z</time></trkpt><trkpt lat="53.758009702945046" lon="11.126641698741103"><ele>64.5</ele><time>2026-04-06T17:20:33.923Z</time></trkpt><trkpt lat="53.75815728780589" lon="11.126683925405052"><ele>65.25</ele><time>2026-04-06T17:20:34.923Z</time></trkpt><trkpt lat="53.75829537501166" lon="11.126722725230131"><ele>66.0</ele><time>2026-04-06T17:20:35.923Z</time></trkpt><trkpt lat="53.75844225130014" lon="11.126739996858166"><ele>65.66666666666667</ele><time>2026-04-06T17:20:36.923Z</time></trkpt><trkpt lat="53.758608713754604" lon="11.126799199765719"><ele>65.33333333333334</ele><time>2026-04-06T17:20:37.923Z</time></trkpt><trkpt lat="53.75876361467872" lon="11.126861692441759"><ele>65.0</ele><time>2026-04-06T17:20:38.923Z</time></trkpt><trkpt lat="53.758926372985584" lon="11.126920102155868"><ele>65.0</ele><time>2026-04-06T17:20:39.923Z</time></trkpt><trkpt lat="53.759083937466876" lon="11.126953270830407"><ele>65.0</ele><time>2026-04-06T17:20:40.923Z</time></trkpt><trkpt lat="53.75919830017909" lon="11.126970957806588"><ele>65.0</ele><time>2026-04-06T17:20:41.923Z</time></trkpt><trkpt lat="53.75932930260647" lon="11.126950949037086"><ele>65.0</ele><time>2026-04-06T17:20:42.923Z</time></trkpt><trkpt lat="53.759473741310636" lon="11.126888685484658"><ele>64.66666666666667</ele><time>2026-04-06T17:20:43.923Z</time></trkpt><trkpt lat="53.759633713876084" lon="11.126810498227265"><ele>64.33333333333333</ele><time>2026-04-06T17:20:44.923Z</time></trkpt><trkpt lat="53.75979143467488" lon="11.126733472871647"><ele>64.0</ele><time>2026-04-06T17:20:45.923Z</time></trkpt><trkpt lat="53.759954249968246" lon="11.12665962850834"><ele>64.0</ele><time>2026-04-06T17:20:46.923Z</time></trkpt><trkpt lat="53.76012413941728" lon="11.12658687431448"><ele>64.0</ele><time>2026-04-06T17:20:47.923Z</time></trkpt><trkpt lat="53.76029405091545" lon="11.126511794908136"><ele>64.0</ele><time>2026-04-06T17:20:48.923Z</time></trkpt><trkpt lat="53.7604643570686" lon="11.126429539015179"><ele>63.33333333333333</ele><time>2026-04-06T17:20:49.923Z</time></trkpt><trkpt lat="53.760630840491594" lon="11.12634912950563"><ele>62.66666666666667</ele><time>2026-04-06T17:20:50.923Z</time></trkpt><trkpt lat="53.76079191986589" lon="11.126271330069937"><ele>62.0</ele><time>2026-04-06T17:20:51.923Z</time></trkpt><trkpt lat="53.76095325268955" lon="11.12619637474541"><ele>61.0</ele><time>2026-04-06T17:20:52.923Z</time></trkpt><trkpt lat="53.761116676910085" lon="11.126121833249424"><ele>60.0</ele><time>2026-04-06T17:20:53.923Z</time></trkpt><trkpt lat="53.761301925019104" lon="11.126028611311302"><ele>59.0</ele><time>2026-04-06T17:20:54.923Z</time></trkpt><trkpt lat="53.76147394570715" lon="11.125932554863372"><ele>59.0</ele><time>2026-04-06T17:20:55.923Z</time></trkpt><trkpt lat="53.761643990644885" lon="11.12583760190706"><ele>59.0</ele><time>2026-04-06T17:20:56.923Z</time></trkpt><trkpt lat="53.761818443707966" lon="11.12573782517506"><ele>59.0</ele><time>2026-04-06T17:20:57.923Z</time></trkpt><trkpt lat="53.762005977530166" lon="11.125629126076443"><ele>57.333333333333336</ele><time>2026-04-06T17:20:58.923Z</time></trkpt><trkpt lat="53.76220781466821" lon="11.125506057899686"><ele>55.66666666666667</ele><time>2026-04-06T17:20:59.923Z</time></trkpt><trkpt lat="53.76239369911415" lon="11.125388276450446"><ele>54.0</ele><time>2026-04-06T17:21:00.923Z</time></trkpt><trkpt lat="53.7625673608858" lon="11.125273724477111"><ele>53.0</ele><time>2026-04-06T17:21:01.923Z</time></trkpt><trkpt lat="53.76274166274088" lon="11.125167561183945"><ele>52.0</ele><time>2026-04-06T17:21:02.923Z</time></trkpt><trkpt lat="53.76291209456434" lon="11.125025502261046"><ele>51.0</ele><time>2026-04-06T17:21:03.923Z</time></trkpt><trkpt lat="53.76306379057563" lon="11.124874937420056"><ele>51.0</ele><time>2026-04-06T17:21:04.923Z</time></trkpt><trkpt lat="53.76320337267412" lon="11.124706504267758"><ele>51.0</ele><time>2026-04-06T17:21:05.923Z</time></trkpt><trkpt lat="53.76335712927634" lon="11.12450873407823"><ele>51.0</ele><time>2026-04-06T17:21:06.923Z</time></trkpt><trkpt lat="53.763472299384865" lon="11.12435906984091"><ele>49.5</ele><time>2026-04-06T17:21:07.924Z</time></trkpt><trkpt lat="53.763571203974045" lon="11.124217988344096"><ele>48.0</ele><time>2026-04-06T17:21:08.924Z</time></trkpt><trkpt lat="53.76365980675386" lon="11.124039859551093"><ele>46.5</ele><time>2026-04-06T17:21:09.924Z</time></trkpt><trkpt lat="53.763737202099946" lon="11.123802105452619"><ele>45.0</ele><time>2026-04-06T17:21:10.924Z</time></trkpt><trkpt lat="53.7637913615861" lon="11.123571613519774"><ele>45.0</ele><time>2026-04-06T17:21:11.924Z</time></trkpt><trkpt lat="53.76382162962191" lon="11.12334711424579"><ele>45.0</ele><time>2026-04-06T17:21:12.924Z</time></trkpt><trkpt lat="53.76387750058566" lon="11.12314368753758"><ele>45.0</ele><time>2026-04-06T17:21:13.924Z</time></trkpt><trkpt lat="53.76391093697559" lon="11.122938569814188"><ele>45.0</ele><time>2026-04-06T17:21:14.924Z</time></trkpt><trkpt lat="53.76393056501099" lon="11.122811433682617"><ele>45.0</ele><time>2026-04-06T17:21:15.924Z</time></trkpt><trkpt lat="53.763952889750854" lon="11.122658476673083"><ele>45.0</ele><time>2026-04-06T17:21:16.924Z</time></trkpt><trkpt lat="53.7639705372901" lon="11.122516376019712"><ele>45.0</ele><time>2026-04-06T17:21:17.924Z</time></trkpt><trkpt lat="53.76398097150916" lon="11.122407753135809"><ele>45.0</ele><time>2026-04-06T17:21:18.924Z</time></trkpt><trkpt lat="53.76399871429637" lon="11.122223059217095"><ele>45.0</ele><time>2026-04-06T17:21:20.924Z</time></trkpt><trkpt lat="53.76411679246481" lon="11.122244336998289"><ele>44.75</ele><time>2026-04-06T17:21:21.924Z</time></trkpt><trkpt lat="53.76423078500155" lon="11.122194462949961"><ele>44.5</ele><time>2026-04-06T17:21:22.924Z</time></trkpt><trkpt lat="53.76435074421251" lon="11.122141978649838"><ele>44.25</ele><time>2026-04-06T17:21:23.924Z</time></trkpt><trkpt lat="53.76447795141149" lon="11.122086323065616"><ele>44.0</ele><time>2026-04-06T17:21:24.924Z</time></trkpt><trkpt lat="53.764626192845455" lon="11.122020041515077"><ele>43.5</ele><time>2026-04-06T17:21:25.924Z</time></trkpt><trkpt lat="53.76476082382983" lon="11.12192545570691"><ele>43.0</ele><time>2026-04-06T17:21:26.924Z</time></trkpt><trkpt lat="53.76490437112323" lon="11.121877346203517"><ele>42.5</ele><time>2026-04-06T17:21:27.924Z</time></trkpt><trkpt lat="53.765049660189675" lon="11.121812349676874"><ele>42.0</ele><time>2026-04-06T17:21:28.924Z</time></trkpt><trkpt lat="53.765199710770865" lon="11.121733784208715"><ele>41.666666666666664</ele><time>2026-04-06T17:21:29.924Z</time></trkpt><trkpt lat="53.76534947588589" lon="11.121650075216143"><ele>41.33333333333333</ele><time>2026-04-06T17:21:30.924Z</time></trkpt><trkpt lat="53.76548989477553" lon="11.121541612525869"><ele>41.0</ele><time>2026-04-06T17:21:31.924Z</time></trkpt><trkpt lat="53.76563607061921" lon="11.121413114992885"><ele>41.0</ele><time>2026-04-06T17:21:32.924Z</time></trkpt><trkpt lat="53.76578466233742" lon="11.121268309221017"><ele>41.0</ele><time>2026-04-06T17:21:33.924Z</time></trkpt><trkpt lat="53.765946038008636" lon="11.121169804854318"><ele>41.0</ele><time>2026-04-06T17:21:34.924Z</time></trkpt><trkpt lat="53.766099046693526" lon="11.121038466241103"><ele>40.666666666666664</ele><time>2026-04-06T17:21:35.924Z</time></trkpt><trkpt lat="53.766259212159284" lon="11.120956858183874"><ele>40.333333333333336</ele><time>2026-04-06T17:21:36.924Z</time></trkpt><trkpt lat="53.76641434162169" lon="11.120906432576861"><ele>40.0</ele><time>2026-04-06T17:21:37.924Z</time></trkpt><trkpt lat="53.76657317984782" lon="11.12087375395538"><ele>40.0</ele><time>2026-04-06T17:21:38.924Z</time></trkpt><trkpt lat="53.76674429076748" lon="11.120889956371936"><ele>40.0</ele><time>2026-04-06T17:21:39.924Z</time></trkpt><trkpt lat="53.76692107029506" lon="11.120859442384594"><ele>40.0</ele><time>2026-04-06T17:21:40.924Z</time></trkpt><trkpt lat="53.76707307401353" lon="11.120874000795443"><ele>39.8</ele><time>2026-04-06T17:21:41.924Z</time></trkpt><trkpt lat="53.76719747626761" lon="11.12091409504141"><ele>39.6</ele><time>2026-04-06T17:21:42.924Z</time></trkpt><trkpt lat="53.767299169066554" lon="11.120926113371063"><ele>39.4</ele><time>2026-04-06T17:21:43.924Z</time></trkpt><trkpt lat="53.76738119121471" lon="11.12091319995099"><ele>39.2</ele><time>2026-04-06T17:21:44.924Z</time></trkpt><trkpt lat="53.76746489217102" lon="11.120849604947537"><ele>39.0</ele><time>2026-04-06T17:21:45.924Z</time></trkpt><trkpt lat="53.76755064584214" lon="11.120739017030477"><ele>38.8</ele><time>2026-04-06T17:21:46.924Z</time></trkpt><trkpt lat="53.76762102572814" lon="11.120613986965774"><ele>38.599999999999994</ele><time>2026-04-06T17:21:47.924Z</time></trkpt><trkpt lat="53.767699909402005" lon="11.120479011042683"><ele>38.4</ele><time>2026-04-06T17:21:48.924Z</time></trkpt><trkpt lat="53.76776707810613" lon="11.120364713129428"><ele>38.199999999999996</ele><time>2026-04-06T17:21:49.924Z</time></trkpt><trkpt lat="53.767852898846655" lon="11.12022566115441"><ele>38.0</ele><time>2026-04-06T17:21:50.924Z</time></trkpt><trkpt lat="53.76794604350418" lon="11.120125102792462"><ele>38.5</ele><time>2026-04-06T17:21:51.924Z</time></trkpt><trkpt lat="53.768062407838705" lon="11.120091609728549"><ele>39.0</ele><time>2026-04-06T17:21:52.924Z</time></trkpt><trkpt lat="53.76816802488786" lon="11.12012502449223"><ele>39.5</ele><time>2026-04-06T17:21:53.924Z</time></trkpt><trkpt lat="53.768288528235495" lon="11.120172257566574"><ele>40.0</ele><time>2026-04-06T17:21:54.924Z</time></trkpt><trkpt lat="53.76840594837195" lon="11.120194028629786"><ele>40.0</ele><time>2026-04-06T17:21:55.924Z</time></trkpt><trkpt lat="53.76852093511814" lon="11.1202785892893"><ele>40.0</ele><time>2026-04-06T17:21:56.924Z</time></trkpt><trkpt lat="53.76863744454683" lon="11.120349096841414"><ele>40.0</ele><time>2026-04-06T17:21:57.924Z</time></trkpt><trkpt lat="53.76873944413864" lon="11.120418831671241"><ele>40.0</ele><time>2026-04-06T17:21:58.924Z</time></trkpt><trkpt lat="53.768867256555254" lon="11.120521781379015"><ele>41.75</ele><time>2026-04-06T17:21:59.924Z</time></trkpt><trkpt lat="53.76899644033154" lon="11.120628301831738"><ele>43.5</ele><time>2026-04-06T17:22:00.924Z</time></trkpt><trkpt lat="53.769117989765725" lon="11.120701012714504"><ele>45.25</ele><time>2026-04-06T17:22:01.924Z</time></trkpt><trkpt lat="53.76921772545102" lon="11.120764184534533"><ele>47.0</ele><time>2026-04-06T17:22:02.924Z</time></trkpt><trkpt lat="53.76928048502842" lon="11.120822716477958"><ele>46.8</ele><time>2026-04-06T17:22:03.924Z</time></trkpt><trkpt lat="53.769346941872655" lon="11.12081725237164"><ele>46.6</ele><time>2026-04-06T17:22:04.924Z</time></trkpt><trkpt lat="53.76945680744182" lon="11.120903199408046"><ele>46.4</ele><time>2026-04-06T17:22:07.924Z</time></trkpt><trkpt lat="53.769589189003696" lon="11.120937067314873"><ele>46.199999999999996</ele><time>2026-04-06T17:22:09.924Z</time></trkpt><trkpt lat="53.76964476539878" lon="11.120993850533594"><ele>46.0</ele><time>2026-04-06T17:22:10.924Z</time></trkpt><trkpt lat="53.769760135575034" lon="11.12105683619768"><ele>46.0</ele><time>2026-04-06T17:22:12.924Z</time></trkpt><trkpt lat="53.769827545686844" lon="11.121084684439456"><ele>46.0</ele><time>2026-04-06T17:22:13.924Z</time></trkpt><trkpt lat="53.769898407419376" lon="11.121141533627458"><ele>46.0</ele><time>2026-04-06T17:22:14.924Z</time></trkpt><trkpt lat="53.76996553553921" lon="11.121222207496237"><ele>46.0</ele><time>2026-04-06T17:22:15.924Z</time></trkpt><trkpt lat="53.770062194708714" lon="11.121190864052577"><ele>46.0</ele><time>2026-04-06T17:22:16.924Z</time></trkpt><trkpt lat="53.77013855464386" lon="11.121258928502035"><ele>46.0</ele><time>2026-04-06T17:22:17.924Z</time></trkpt><trkpt lat="53.77021636209041" lon="11.121271245108485"><ele>46.5</ele><time>2026-04-06T17:22:18.924Z</time></trkpt><trkpt lat="53.770286176007794" lon="11.121293648698463"><ele>47.0</ele><time>2026-04-06T17:22:19.924Z</time></trkpt><trkpt lat="53.770376662001865" lon="11.121324859307405"><ele>47.5</ele><time>2026-04-06T17:22:20.924Z</time></trkpt><trkpt lat="53.77047203046091" lon="11.121345558381437"><ele>48.0</ele><time>2026-04-06T17:22:21.924Z</time></trkpt><trkpt lat="53.77055480911614" lon="11.121390654710275"><ele>48.49999999999999</ele><time>2026-04-06T17:22:22.924Z</time></trkpt><trkpt lat="53.7706524530722" lon="11.121441107273217"><ele>49.0</ele><time>2026-04-06T17:22:23.924Z</time></trkpt><trkpt lat="53.77075112550967" lon="11.121520962512518"><ele>49.33333333333333</ele><time>2026-04-06T17:22:24.924Z</time></trkpt><trkpt lat="53.77085074475127" lon="11.121610648975153"><ele>49.666666666666664</ele><time>2026-04-06T17:22:25.924Z</time></trkpt><trkpt lat="53.77093123257948" lon="11.121683874073986"><ele>50.0</ele><time>2026-04-06T17:22:26.924Z</time></trkpt><trkpt lat="53.771011032408325" lon="11.121754568360323"><ele>50.33333333333333</ele><time>2026-04-06T17:22:27.924Z</time></trkpt><trkpt lat="53.771068150125984" lon="11.121804636396648"><ele>50.666666666666664</ele><time>2026-04-06T17:22:28.924Z</time></trkpt><trkpt lat="53.77113259100368" lon="11.121860265826665"><ele>51.0</ele><time>2026-04-06T17:22:29.924Z</time></trkpt><trkpt lat="53.77119757131923" lon="11.121900872357353"><ele>51.166666666666664</ele><time>2026-04-06T17:22:30.924Z</time></trkpt><trkpt lat="53.77127515722384" lon="11.12196129528131"><ele>51.33333333333333</ele><time>2026-04-06T17:22:32.924Z</time></trkpt><trkpt lat="53.77133997124933" lon="11.121898789632697"><ele>51.5</ele><time>2026-04-06T17:22:33.924Z</time></trkpt><trkpt lat="53.77137319088964" lon="11.121784055183872"><ele>51.666666666666664</ele><time>2026-04-06T17:22:34.924Z</time></trkpt><trkpt lat="53.77142954587824" lon="11.121666431872631"><ele>51.83333333333333</ele><time>2026-04-06T17:22:35.924Z</time></trkpt><trkpt lat="53.77148348543601" lon="11.121567030658914"><ele>52.0</ele><time>2026-04-06T17:22:36.924Z</time></trkpt><trkpt lat="53.77154974341958" lon="11.121398384020697"><ele>52.0</ele><time>2026-04-06T17:22:37.924Z</time></trkpt><trkpt lat="53.771612006125906" lon="11.12121306194608"><ele>52.0</ele><time>2026-04-06T17:22:38.924Z</time></trkpt><trkpt lat="53.77168111649855" lon="11.121082761103965"><ele>52.0</ele><time>2026-04-06T17:22:39.924Z</time></trkpt><trkpt lat="53.77175247724726" lon="11.12090919118016"><ele>52.0</ele><time>2026-04-06T17:22:40.924Z</time></trkpt><trkpt lat="53.771827966225764" lon="11.120729891144052"><ele>52.25</ele><time>2026-04-06T17:22:41.924Z</time></trkpt><trkpt lat="53.771906367287954" lon="11.120543485161622"><ele>52.5</ele><time>2026-04-06T17:22:42.924Z</time></trkpt><trkpt lat="53.771993882737306" lon="11.120332387968997"><ele>52.75</ele><time>2026-04-06T17:22:43.924Z</time></trkpt><trkpt lat="53.77205675599513" lon="11.120134228031782"><ele>53.0</ele><time>2026-04-06T17:22:44.924Z</time></trkpt><trkpt lat="53.772150147379485" lon="11.119957037366062"><ele>53.25</ele><time>2026-04-06T17:22:45.924Z</time></trkpt><trkpt lat="53.77221480426246" lon="11.119739933656529"><ele>53.5</ele><time>2026-04-06T17:22:46.924Z</time></trkpt><trkpt lat="53.77229436709786" lon="11.11953864529114"><ele>53.75</ele><time>2026-04-06T17:22:48Z</time></trkpt><trkpt lat="53.77237255926025" lon="11.119360146044873"><ele>54.0</ele><time>2026-04-06T17:22:49Z</time></trkpt><trkpt lat="53.77245735966495" lon="11.119169659383871"><ele>54.0</ele><time>2026-04-06T17:22:50Z</time></trkpt><trkpt lat="53.772533421482045" lon="11.119019992936746"><ele>54.0</ele><time>2026-04-06T17:22:51Z</time></trkpt><trkpt lat="53.772618247336155" lon="11.118802873709315"><ele>54.0</ele><time>2026-04-06T17:22:52Z</time></trkpt><trkpt lat="53.77271428126055" lon="11.118606862478138"><ele>54.0</ele><time>2026-04-06T17:22:53Z</time></trkpt><trkpt lat="53.77280049622975" lon="11.118405801615808"><ele>53.75</ele><time>2026-04-06T17:22:54Z</time></trkpt><trkpt lat="53.77287181610594" lon="11.118233407824423"><ele>53.5</ele><time>2026-04-06T17:22:55Z</time></trkpt><trkpt lat="53.772940372453505" lon="11.118021832506264"><ele>53.25</ele><time>2026-04-06T17:22:56Z</time></trkpt><trkpt lat="53.7730398750564" lon="11.117823746626188"><ele>53.0</ele><time>2026-04-06T17:22:57Z</time></trkpt><trkpt lat="53.773114717681004" lon="11.117641402627394"><ele>53.0</ele><time>2026-04-06T17:22:58Z</time></trkpt><trkpt lat="53.773171822107365" lon="11.117454766289228"><ele>53.0</ele><time>2026-04-06T17:22:59Z</time></trkpt><trkpt lat="53.77327514416914" lon="11.117429206808565"><ele>53.0</ele><time>2026-04-06T17:23:00Z</time></trkpt><trkpt lat="53.773410095285335" lon="11.117403360291222"><ele>53.0</ele><time>2026-04-06T17:23:01Z</time></trkpt><trkpt lat="53.773546678400514" lon="11.117371664791879"><ele>52.75</ele><time>2026-04-06T17:23:02Z</time></trkpt><trkpt lat="53.77368087197177" lon="11.117317576121067"><ele>52.5</ele><time>2026-04-06T17:23:03Z</time></trkpt><trkpt lat="53.77381842751564" lon="11.117317073583024"><ele>52.25</ele><time>2026-04-06T17:23:04Z</time></trkpt><trkpt lat="53.77394736229449" lon="11.117288870661046"><ele>52.0</ele><time>2026-04-06T17:23:05Z</time></trkpt><trkpt lat="53.77407845329195" lon="11.117234888922741"><ele>52.0</ele><time>2026-04-06T17:23:06Z</time></trkpt><trkpt lat="53.77420333410172" lon="11.117213267702578"><ele>52.0</ele><time>2026-04-06T17:23:07Z</time></trkpt><trkpt lat="53.77432231866999" lon="11.117196250634612"><ele>52.0</ele><time>2026-04-06T17:23:08Z</time></trkpt><trkpt lat="53.774448360135615" lon="11.11717253282108"><ele>52.0</ele><time>2026-04-06T17:23:09Z</time></trkpt><trkpt lat="53.7745687769795" lon="11.117148742670755"><ele>52.25</ele><time>2026-04-06T17:23:10Z</time></trkpt><trkpt lat="53.77470232825252" lon="11.11713303954328"><ele>52.5</ele><time>2026-04-06T17:23:11Z</time></trkpt><trkpt lat="53.77484385669577" lon="11.11711486506004"><ele>52.75</ele><time>2026-04-06T17:23:12Z</time></trkpt><trkpt lat="53.77497939106774" lon="11.117058115256238"><ele>53.0</ele><time>2026-04-06T17:23:13Z</time></trkpt><trkpt lat="53.77510935719464" lon="11.117031879355572"><ele>53.0</ele><time>2026-04-06T17:23:14Z</time></trkpt><trkpt lat="53.77524863076671" lon="11.11700951720401"><ele>53.0</ele><time>2026-04-06T17:23:15Z</time></trkpt><trkpt lat="53.77539382002944" lon="11.116958893999234"><ele>53.0</ele><time>2026-04-06T17:23:16Z</time></trkpt><trkpt lat="53.77553090023397" lon="11.116925188231537"><ele>53.0</ele><time>2026-04-06T17:23:17Z</time></trkpt><trkpt lat="53.775643666935515" lon="11.116842009994858"><ele>53.0</ele><time>2026-04-06T17:23:18Z</time></trkpt><trkpt lat="53.775735468828806" lon="11.116787870003476"><ele>53.0</ele><time>2026-04-06T17:23:19Z</time></trkpt><trkpt lat="53.77580348114518" lon="11.116765620146648"><ele>53.0</ele><time>2026-04-06T17:23:20.001Z</time></trkpt><trkpt lat="53.7758658701016" lon="11.116786709168364"><ele>53.0</ele><time>2026-04-06T17:23:22.001Z</time></trkpt><trkpt lat="53.775968641201075" lon="11.116533498093641"><ele>53.0</ele><time>2026-04-06T17:23:24.001Z</time></trkpt><trkpt lat="53.775920753541456" lon="11.11641653241189"><ele>53.0</ele><time>2026-04-06T17:23:25.001Z</time></trkpt><trkpt lat="53.775872971436605" lon="11.11630367970392"><ele>53.0</ele><time>2026-04-06T17:23:26.001Z</time></trkpt><trkpt lat="53.775816482000884" lon="11.116156089888769"><ele>53.0</ele><time>2026-04-06T17:23:27.001Z</time></trkpt><trkpt lat="53.77575594292925" lon="11.116005577260921"><ele>53.0</ele><time>2026-04-06T17:23:28.001Z</time></trkpt><trkpt lat="53.77569678430977" lon="11.11585816517903"><ele>53.0</ele><time>2026-04-06T17:23:29.001Z</time></trkpt><trkpt lat="53.77563251546558" lon="11.115698019660297"><ele>52.5</ele><time>2026-04-06T17:23:30.001Z</time></trkpt><trkpt lat="53.775555884946975" lon="11.11554017008342"><ele>52.0</ele><time>2026-04-06T17:23:31.001Z</time></trkpt><trkpt lat="53.77547600936698" lon="11.115358281310616"><ele>51.5</ele><time>2026-04-06T17:23:32.001Z</time></trkpt><trkpt lat="53.775399949043" lon="11.115131348121517"><ele>51.0</ele><time>2026-04-06T17:23:33.001Z</time></trkpt><trkpt lat="53.775315837599436" lon="11.114929457818446"><ele>50.75</ele><time>2026-04-06T17:23:34.001Z</time></trkpt><trkpt lat="53.77524013006475" lon="11.114749112848628"><ele>50.5</ele><time>2026-04-06T17:23:35.001Z</time></trkpt><trkpt lat="53.77515716436076" lon="11.114551477798715"><ele>50.25</ele><time>2026-04-06T17:23:36.001Z</time></trkpt><trkpt lat="53.77506611568547" lon="11.114334588053298"><ele>50.0</ele><time>2026-04-06T17:23:37.001Z</time></trkpt><trkpt lat="53.774974895899916" lon="11.114117289119308"><ele>49.333333333333336</ele><time>2026-04-06T17:23:38.001Z</time></trkpt><trkpt lat="53.77487700054898" lon="11.113886228680412"><ele>48.66666666666667</ele><time>2026-04-06T17:23:39.001Z</time></trkpt><trkpt lat="53.7747977951781" lon="11.113700825343761"><ele>48.0</ele><time>2026-04-06T17:23:40.001Z</time></trkpt><trkpt lat="53.77467908272495" lon="11.113420191678493"><ele>48.33333333333333</ele><time>2026-04-06T17:23:41.001Z</time></trkpt><trkpt lat="53.774622611000254" lon="11.113143704936052"><ele>48.666666666666664</ele><time>2026-04-06T17:23:42.001Z</time></trkpt><trkpt lat="53.77464652886135" lon="11.11284641630888"><ele>49.0</ele><time>2026-04-06T17:23:43.001Z</time></trkpt><trkpt lat="53.77464469697191" lon="11.112557879792819"><ele>49.666666666666664</ele><time>2026-04-06T17:23:44.001Z</time></trkpt><trkpt lat="53.774647652771705" lon="11.11229314300103"><ele>50.33333333333333</ele><time>2026-04-06T17:23:45.001Z</time></trkpt><trkpt lat="53.77462997172325" lon="11.112001154078497"><ele>51.0</ele><time>2026-04-06T17:23:46.001Z</time></trkpt><trkpt lat="53.77461236904705" lon="11.111715947537272"><ele>51.33333333333333</ele><time>2026-04-06T17:23:47.001Z</time></trkpt><trkpt lat="53.77459544151865" lon="11.111450457120403"><ele>51.666666666666664</ele><time>2026-04-06T17:23:48.001Z</time></trkpt><trkpt lat="53.77456879521759" lon="11.111174332839227"><ele>52.0</ele><time>2026-04-06T17:23:49.001Z</time></trkpt><trkpt lat="53.774556168965276" lon="11.110889861817562"><ele>53.0</ele><time>2026-04-06T17:23:50.001Z</time></trkpt><trkpt lat="53.77454864034901" lon="11.110661666578777"><ele>54.0</ele><time>2026-04-06T17:23:51.001Z</time></trkpt><trkpt lat="53.77452938461909" lon="11.110366024641865"><ele>55.0</ele><time>2026-04-06T17:23:52.001Z</time></trkpt><trkpt lat="53.774510151386266" lon="11.110069281427469"><ele>55.33333333333333</ele><time>2026-04-06T17:23:53.001Z</time></trkpt><trkpt lat="53.77449540536148" lon="11.109790483499596"><ele>55.66666666666667</ele><time>2026-04-06T17:23:54.001Z</time></trkpt><trkpt lat="53.77447877526738" lon="11.10950985227461"><ele>56.0</ele><time>2026-04-06T17:23:55.001Z</time></trkpt><trkpt lat="53.77444663389608" lon="11.109225449464896"><ele>56.0</ele><time>2026-04-06T17:23:56.001Z</time></trkpt><trkpt lat="53.77444409917195" lon="11.108924696513574"><ele>56.0</ele><time>2026-04-06T17:23:57.001Z</time></trkpt><trkpt lat="53.77441189690234" lon="11.108659909863405"><ele>56.0</ele><time>2026-04-06T17:23:58.001Z</time></trkpt><trkpt lat="53.774411881728305" lon="11.108384332961768"><ele>56.0</ele><time>2026-04-06T17:23:59.001Z</time></trkpt><trkpt lat="53.77439240138477" lon="11.108115496891106"><ele>56.0</ele><time>2026-04-06T17:24:00.001Z</time></trkpt><trkpt lat="53.77436650680894" lon="11.107854224952005"><ele>56.0</ele><time>2026-04-06T17:24:01.001Z</time></trkpt><trkpt lat="53.77432080633728" lon="11.107588641498499"><ele>57.0</ele><time>2026-04-06T17:24:02.001Z</time></trkpt><trkpt lat="53.77423713156953" lon="11.107330667735917"><ele>58.0</ele><time>2026-04-06T17:24:03.001Z</time></trkpt><trkpt lat="53.774153373797375" lon="11.107071909868933"><ele>59.0</ele><time>2026-04-06T17:24:04.001Z</time></trkpt><trkpt lat="53.774036584529796" lon="11.106868512325109"><ele>59.0</ele><time>2026-04-06T17:24:05.002Z</time></trkpt><trkpt lat="53.77387651371192" lon="11.106699938524539"><ele>59.0</ele><time>2026-04-06T17:24:06.002Z</time></trkpt><trkpt lat="53.77373681457055" lon="11.106565854520696"><ele>59.0</ele><time>2026-04-06T17:24:07.002Z</time></trkpt><trkpt lat="53.77358713387467" lon="11.10643237562198"><ele>58.66666666666667</ele><time>2026-04-06T17:24:08.002Z</time></trkpt><trkpt lat="53.77344357544341" lon="11.106302221313717"><ele>58.33333333333333</ele><time>2026-04-06T17:24:09.002Z</time></trkpt><trkpt lat="53.77331100714469" lon="11.106159666053877"><ele>58.0</ele><time>2026-04-06T17:24:10.002Z</time></trkpt><trkpt lat="53.773163390433304" lon="11.106027440246924"><ele>58.0</ele><time>2026-04-06T17:24:11.002Z</time></trkpt><trkpt lat="53.77303613115857" lon="11.105861344917777"><ele>58.0</ele><time>2026-04-06T17:24:12.002Z</time></trkpt><trkpt lat="53.77290837287698" lon="11.105719207582762"><ele>58.0</ele><time>2026-04-06T17:24:13.002Z</time></trkpt><trkpt lat="53.772779785770894" lon="11.10560245142782"><ele>58.33333333333333</ele><time>2026-04-06T17:24:14.002Z</time></trkpt><trkpt lat="53.7726493930933" lon="11.105446638282926"><ele>58.66666666666667</ele><time>2026-04-06T17:24:15.002Z</time></trkpt><trkpt lat="53.7725209764398" lon="11.105284906717284"><ele>59.0</ele><time>2026-04-06T17:24:16.002Z</time></trkpt><trkpt lat="53.77239950541686" lon="11.105148874933036"><ele>59.0</ele><time>2026-04-06T17:24:17.002Z</time></trkpt><trkpt lat="53.77226354068458" lon="11.10499696640353"><ele>59.0</ele><time>2026-04-06T17:24:18.002Z</time></trkpt><trkpt lat="53.77211903343048" lon="11.104836441210667"><ele>59.0</ele><time>2026-04-06T17:24:19.002Z</time></trkpt><trkpt lat="53.77198488221613" lon="11.104686136816834"><ele>57.0</ele><time>2026-04-06T17:24:20.002Z</time></trkpt><trkpt lat="53.771850897312454" lon="11.104538816680554"><ele>55.0</ele><time>2026-04-06T17:24:21.002Z</time></trkpt><trkpt lat="53.771709440203" lon="11.104389573992867"><ele>53.0</ele><time>2026-04-06T17:24:22.002Z</time></trkpt><trkpt lat="53.77155064997969" lon="11.104219978535873"><ele>53.66666666666667</ele><time>2026-04-06T17:24:23.002Z</time></trkpt><trkpt lat="53.77139033562088" lon="11.104045848301627"><ele>54.33333333333333</ele><time>2026-04-06T17:24:24.002Z</time></trkpt><trkpt lat="53.771238078656836" lon="11.103876643840469"><ele>55.0</ele><time>2026-04-06T17:24:25.002Z</time></trkpt><trkpt lat="53.77107177860313" lon="11.103690964606965"><ele>53.0</ele><time>2026-04-06T17:24:26.002Z</time></trkpt><trkpt lat="53.770920987452534" lon="11.10352901409737"><ele>51.0</ele><time>2026-04-06T17:24:27.002Z</time></trkpt><trkpt lat="53.770779520180916" lon="11.103375117745339"><ele>49.0</ele><time>2026-04-06T17:24:28.002Z</time></trkpt><trkpt lat="53.77062696107466" lon="11.103208507236394"><ele>49.0</ele><time>2026-04-06T17:24:29.002Z</time></trkpt><trkpt lat="53.770473576817515" lon="11.103039684249183"><ele>49.0</ele><time>2026-04-06T17:24:30.002Z</time></trkpt><trkpt lat="53.77030805070577" lon="11.102855281570008"><ele>49.0</ele><time>2026-04-06T17:24:31.002Z</time></trkpt><trkpt lat="53.77012828119386" lon="11.102644189570487"><ele>49.0</ele><time>2026-04-06T17:24:32.002Z</time></trkpt><trkpt lat="53.76997586948129" lon="11.102438504706155"><ele>49.0</ele><time>2026-04-06T17:24:33.002Z</time></trkpt><trkpt lat="53.76983549621964" lon="11.102209284264664"><ele>49.0</ele><time>2026-04-06T17:24:34.002Z</time></trkpt><trkpt lat="53.76970249152879" lon="11.101965834601748"><ele>49.0</ele><time>2026-04-06T17:24:35.002Z</time></trkpt><trkpt lat="53.76957343217087" lon="11.101712131770048"><ele>49.0</ele><time>2026-04-06T17:24:36.002Z</time></trkpt><trkpt lat="53.7694441276804" lon="11.101458116767983"><ele>49.0</ele><time>2026-04-06T17:24:37.002Z</time></trkpt><trkpt lat="53.76929433749756" lon="11.101230954487132"><ele>47.666666666666664</ele><time>2026-04-06T17:24:38.002Z</time></trkpt><trkpt lat="53.769156558576626" lon="11.10100666298415"><ele>46.33333333333333</ele><time>2026-04-06T17:24:39.002Z</time></trkpt><trkpt lat="53.76902812509958" lon="11.100779445337349"><ele>45.0</ele><time>2026-04-06T17:24:40.002Z</time></trkpt><trkpt lat="53.76889847083263" lon="11.100592299716137"><ele>45.0</ele><time>2026-04-06T17:24:41.002Z</time></trkpt><trkpt lat="53.76877299953175" lon="11.100413421861084"><ele>45.0</ele><time>2026-04-06T17:24:42.002Z</time></trkpt><trkpt lat="53.768646094210716" lon="11.100232901402677"><ele>45.0</ele><time>2026-04-06T17:24:43.002Z</time></trkpt><trkpt lat="53.76851806622567" lon="11.100052258206615"><ele>44.0</ele><time>2026-04-06T17:24:44.002Z</time></trkpt><trkpt lat="53.76838485650162" lon="11.099867474050575"><ele>43.0</ele><time>2026-04-06T17:24:45.002Z</time></trkpt><trkpt lat="53.76824208495024" lon="11.099702167072373"><ele>42.0</ele><time>2026-04-06T17:24:46.002Z</time></trkpt><trkpt lat="53.76810466363533" lon="11.099522275175685"><ele>42.0</ele><time>2026-04-06T17:24:47.002Z</time></trkpt><trkpt lat="53.767969814403244" lon="11.099305218051969"><ele>42.0</ele><time>2026-04-06T17:24:48.002Z</time></trkpt><trkpt lat="53.76782155921837" lon="11.09910472489791"><ele>42.0</ele><time>2026-04-06T17:24:49.002Z</time></trkpt><trkpt lat="53.767674014976414" lon="11.098916470331309"><ele>42.666666666666664</ele><time>2026-04-06T17:24:50.002Z</time></trkpt><trkpt lat="53.767513143801054" lon="11.098750131345067"><ele>43.33333333333333</ele><time>2026-04-06T17:24:51.003Z</time></trkpt><trkpt lat="53.767355100354195" lon="11.098629478790597"><ele>44.0</ele><time>2026-04-06T17:24:52.003Z</time></trkpt><trkpt lat="53.76718057967672" lon="11.098528932456993"><ele>44.0</ele><time>2026-04-06T17:24:53.003Z</time></trkpt><trkpt lat="53.767003201462835" lon="11.098436506212877"><ele>44.0</ele><time>2026-04-06T17:24:54.003Z</time></trkpt><trkpt lat="53.76684652527823" lon="11.09833214744086"><ele>44.0</ele><time>2026-04-06T17:24:55.003Z</time></trkpt><trkpt lat="53.76668813722457" lon="11.098229948794424"><ele>44.33333333333333</ele><time>2026-04-06T17:24:56.003Z</time></trkpt><trkpt lat="53.76653188494619" lon="11.098124571009544"><ele>44.666666666666664</ele><time>2026-04-06T17:24:57.003Z</time></trkpt><trkpt lat="53.76640987057458" lon="11.097940556596857"><ele>45.0</ele><time>2026-04-06T17:24:58.003Z</time></trkpt><trkpt lat="53.7662890605911" lon="11.097683592850457"><ele>45.0</ele><time>2026-04-06T17:24:59.003Z</time></trkpt><trkpt lat="53.766199500608955" lon="11.097411535459619"><ele>45.0</ele><time>2026-04-06T17:25:00.003Z</time></trkpt><trkpt lat="53.766128036521884" lon="11.097167808965793"><ele>45.0</ele><time>2026-04-06T17:25:01.003Z</time></trkpt><trkpt lat="53.76604831692227" lon="11.09692523996078"><ele>45.5</ele><time>2026-04-06T17:25:02.003Z</time></trkpt><trkpt lat="53.76597687299212" lon="11.096695416172722"><ele>46.0</ele><time>2026-04-06T17:25:03.003Z</time></trkpt><trkpt lat="53.76593426792995" lon="11.096509952261066"><ele>46.5</ele><time>2026-04-06T17:25:04.003Z</time></trkpt><trkpt lat="53.765869921803194" lon="11.096292556336442"><ele>47.0</ele><time>2026-04-06T17:25:05.003Z</time></trkpt><trkpt lat="53.765799640208584" lon="11.096055022909573"><ele>47.0</ele><time>2026-04-06T17:25:06.003Z</time></trkpt><trkpt lat="53.765734085854135" lon="11.095833697857364"><ele>47.0</ele><time>2026-04-06T17:25:07.003Z</time></trkpt><trkpt lat="53.765675415364456" lon="11.095635614287833"><ele>47.0</ele><time>2026-04-06T17:25:08.003Z</time></trkpt><trkpt lat="53.765625398125884" lon="11.095466753981098"><ele>47.0</ele><time>2026-04-06T17:25:09.003Z</time></trkpt><trkpt lat="53.765587799421766" lon="11.09533571289048"><ele>46.8</ele><time>2026-04-06T17:25:10.003Z</time></trkpt><trkpt lat="53.76555779941697" lon="11.095138361195769"><ele>46.6</ele><time>2026-04-06T17:25:12.003Z</time></trkpt><trkpt lat="53.76551736861144" lon="11.095003979880351"><ele>46.4</ele><time>2026-04-06T17:25:13.003Z</time></trkpt><trkpt lat="53.76540319312853" lon="11.09505553017413"><ele>46.199999999999996</ele><time>2026-04-06T17:25:15.003Z</time></trkpt><trkpt lat="53.76534821064105" lon="11.095115472331866"><ele>46.0</ele><time>2026-04-06T17:25:16.003Z</time></trkpt><trkpt lat="53.76528097421887" lon="11.09519631533718"><ele>46.0</ele><time>2026-04-06T17:25:17.003Z</time></trkpt><trkpt lat="53.76521391324593" lon="11.095277772278033"><ele>46.0</ele><time>2026-04-06T17:25:18.003Z</time></trkpt><trkpt lat="53.76515530911741" lon="11.095347374305355"><ele>46.0</ele><time>2026-04-06T17:25:19.003Z</time></trkpt><trkpt lat="53.76508702324773" lon="11.095428671420786"><ele>46.0</ele><time>2026-04-06T17:25:20.003Z</time></trkpt><trkpt lat="53.76500961699691" lon="11.095517679269106"><ele>46.0</ele><time>2026-04-06T17:25:21.003Z</time></trkpt><trkpt lat="53.764937791107975" lon="11.09560027245986"><ele>46.0</ele><time>2026-04-06T17:25:22.003Z</time></trkpt><trkpt lat="53.76485702274958" lon="11.095691779685318"><ele>46.599999999999994</ele><time>2026-04-06T17:25:23.003Z</time></trkpt><trkpt lat="53.76477155746873" lon="11.095789109475797"><ele>47.2</ele><time>2026-04-06T17:25:24.003Z</time></trkpt><trkpt lat="53.76469663819596" lon="11.095874429351287"><ele>47.8</ele><time>2026-04-06T17:25:25.003Z</time></trkpt><trkpt lat="53.764643390664766" lon="11.09593506913961"><ele>48.400000000000006</ele><time>2026-04-06T17:25:26.003Z</time></trkpt><trkpt lat="53.76455754740592" lon="11.096187946050945"><ele>49.0</ele><time>2026-04-06T17:25:28.003Z</time></trkpt><trkpt lat="53.7646468735064" lon="11.096299552137035"><ele>48.99999999999999</ele><time>2026-04-06T17:25:29.003Z</time></trkpt><trkpt lat="53.764735058692565" lon="11.096326544075716"><ele>49.0</ele><time>2026-04-06T17:25:30.003Z</time></trkpt><trkpt lat="53.76480509703877" lon="11.096339630069666"><ele>49.0</ele><time>2026-04-06T17:25:31.003Z</time></trkpt><trkpt lat="53.76488098643849" lon="11.09634980712259"><ele>49.0</ele><time>2026-04-06T17:25:32.003Z</time></trkpt><trkpt lat="53.764967945762464" lon="11.096360873192223"><ele>48.99999999999999</ele><time>2026-04-06T17:25:33.003Z</time></trkpt><trkpt lat="53.765062651061434" lon="11.096371650263128"><ele>49.0</ele><time>2026-04-06T17:25:34.003Z</time></trkpt><trkpt lat="53.76515929458395" lon="11.096383193856019"><ele>48.666666666666664</ele><time>2026-04-06T17:25:35.003Z</time></trkpt><trkpt lat="53.765239867652035" lon="11.096393366478559"><ele>48.33333333333333</ele><time>2026-04-06T17:25:36.004Z</time></trkpt><trkpt lat="53.76530683394688" lon="11.096425421649037"><ele>48.0</ele><time>2026-04-06T17:25:37.004Z</time></trkpt><trkpt lat="53.765356346967735" lon="11.096520933205355"><ele>47.666666666666664</ele><time>2026-04-06T17:25:38.004Z</time></trkpt><trkpt lat="53.76536282653902" lon="11.096726666958693"><ele>47.33333333333333</ele><time>2026-04-06T17:25:40.004Z</time></trkpt><trkpt lat="53.76538976936687" lon="11.09685987805391"><ele>47.0</ele><time>2026-04-06T17:25:41.004Z</time></trkpt><trkpt lat="53.76542097062421" lon="11.097015323509908"><ele>47.0</ele><time>2026-04-06T17:25:42.004Z</time></trkpt><trkpt lat="53.765450411016886" lon="11.097161995538226"><ele>47.0</ele><time>2026-04-06T17:25:43.004Z</time></trkpt><trkpt lat="53.7654958723246" lon="11.09732091222406"><ele>47.0</ele><time>2026-04-06T17:25:44.004Z</time></trkpt><trkpt lat="53.765498301483056" lon="11.097438209240163"><ele>47.0</ele><time>2026-04-06T17:25:45.004Z</time></trkpt><trkpt lat="53.76547142564822" lon="11.097568776592457"><ele>47.0</ele><time>2026-04-06T17:25:47.004Z</time></trkpt><trkpt lat="53.76534162601163" lon="11.097630698994577"><ele>47.0</ele><time>2026-04-06T17:25:49.004Z</time></trkpt><trkpt lat="53.76525581154102" lon="11.0976304412619"><ele>47.0</ele><time>2026-04-06T17:25:50.004Z</time></trkpt><trkpt lat="53.765178719329924" lon="11.0976275590004"><ele>47.0</ele><time>2026-04-06T17:25:51.004Z</time></trkpt><trkpt lat="53.765115442957956" lon="11.097624993247164"><ele>47.0</ele><time>2026-04-06T17:25:52.004Z</time></trkpt><trkpt lat="53.76503903950175" lon="11.097618481545492"><ele>47.0</ele><time>2026-04-06T17:25:53.004Z</time></trkpt><trkpt lat="53.76492943204111" lon="11.097609140026865"><ele>47.0</ele><time>2026-04-06T17:25:55.004Z</time></trkpt><trkpt lat="53.76485965995278" lon="11.097603193544833"><ele>47.5</ele><time>2026-04-06T17:25:56.004Z</time></trkpt><trkpt lat="53.76477724213206" lon="11.097611299897563"><ele>48.0</ele><time>2026-04-06T17:25:59.004Z</time></trkpt><trkpt lat="53.764709878697495" lon="11.097593681071258"><ele>48.5</ele><time>2026-04-06T17:26:36.005Z</time></trkpt><trkpt lat="53.76463871192468" lon="11.097590051008252"><ele>49.0</ele><time>2026-04-06T17:26:40.005Z</time></trkpt><trkpt lat="53.764564296973305" lon="11.097586255085654"><ele>49.50000000000001</ele><time>2026-04-06T17:26:42.005Z</time></trkpt><trkpt lat="53.764651798575265" lon="11.097590718549377"><ele>50.0</ele><time>2026-04-06T17:26:48.005Z</time></trkpt><trkpt lat="53.76471984831847" lon="11.097594189620095"><ele>50.00000000000001</ele><time>2026-04-06T17:26:50.005Z</time></trkpt><trkpt lat="53.76472261924228" lon="11.097768821381429"><ele>50.0</ele><time>2026-04-06T17:27:14.006Z</time></trkpt><trkpt lat="53.76473135521783" lon="11.097881109805659"><ele>50.0</ele><time>2026-04-06T17:27:19.006Z</time></trkpt><trkpt lat="53.764686677385015" lon="11.097964445513963"><ele>50.0</ele><time>2026-04-06T17:27:27.006Z</time></trkpt><trkpt lat="53.764753009216555" lon="11.09798121394013"><ele>50.0</ele><time>2026-04-06T17:28:16.007Z</time></trkpt><trkpt lat="53.76481683466967" lon="11.09801084577795"><ele>50.00000000000001</ele><time>2026-04-06T17:29:02.008Z</time></trkpt><trkpt lat="53.76488305905362" lon="11.09803070450762"><ele>50.0</ele><time>2026-04-06T17:30:02.007Z</time></trkpt><trkpt lat="53.76490690479512" lon="11.09791814267908"><ele>50.0</ele><time>2026-04-06T17:32:51.001Z</time></trkpt><trkpt lat="53.764841349386344" lon="11.097958419825256"><ele>50.0</ele><time>2026-04-06T17:33:31.001Z</time></trkpt><trkpt lat="53.76473523952937" lon="11.098026883635738"><ele>50.0</ele><time>2026-04-06T17:34:01.001Z</time></trkpt></trkseg></trk></gpx>